首页
METAR-TAF:

METAR-TAF

机场 :

卡尔加里国际机场

卡尔加里, 艾伯塔, 加拿大

纬度: 51-07N, 经度: 114-01W, 海拔: 1077米

当前天气观测

该预报发布于46分钟前的16:00 UTC
风速6节,风向北转西北
温度 -4°C
湿度 68%
气压 1008 hPa
能見度: 64.4公里
散云层高于16000英尺
散云层高于28000英尺

METAR: CYYC 231600Z 34006KT 40SM SCT160 SCT280 M04/M09 A2977 RMK AC3CI1 SLP132

时间: 09:46 (16:46 UTC)

预报

该预报发布于2小时和8分钟前的14:38 UTC
预报有效从23日的 15点(UTC)到 24日的 12点(UTC)
风速8节,风向北转西北
能見度: 10公里
少量云层高于18000英尺
多云层高于21000英尺
从 23日的 1700点(UTC)
风速8节,风向西转西北
能見度: 10公里
少量云层高于1500英尺
散云层高于15000英尺
从 23日的 2200点(UTC)
风速3节,风向多变
能見度: 10公里
少量云层高于8000英尺
从 24日的 0400点(UTC)
风速10节,风向西
能見度: 10公里
少量云层高于16000英尺

TAF: CYYC 231438Z 2315/2412 33008KT P6SM FEW180 BKN210 FM231700 30008KT P6SM FEW015 SCT150 FM232200 VRB03KT P6SM FEW080 FM240400 26010KT P6SM FEW160 RMK NXT FCST BY 231800Z

超过4000个机场的气象观测和天气预报(METAR&TAF报告)。

可查询的气象台以黄色和红色小点在地图上表示。

将鼠标移到小点上方,可查看气象台名称。

然后点击查看天气观测和预报。

如需切换地图:点击带黑十字的绿色按钮放大地图;点击带横线的绿色按钮缩小地图;或者点击绿色箭头查看邻近地区的地图。


METAR-TAF: